createdAt,value
2018-10-02T00:00:55.753Z,1025.23
2018-10-02T00:01:55.824Z,1025.23
2018-10-02T00:02:55.690Z,1025.2
2018-10-02T00:03:55.783Z,1025.23
2018-10-02T00:04:55.702Z,1025.17
2018-10-02T00:05:55.710Z,1025.22
2018-10-02T00:06:55.716Z,1025.25
2018-10-02T00:07:55.700Z,1025.27
2018-10-02T00:08:55.717Z,1025.22
2018-10-02T00:09:55.751Z,1025.22
2018-10-02T00:10:55.714Z,1025.23
2018-10-02T00:11:55.690Z,1025.26
2018-10-02T00:12:55.689Z,1025.33
2018-10-02T00:13:55.732Z,1025.32
2018-10-02T00:14:55.712Z,1025.28
2018-10-02T00:15:55.836Z,1025.32
2018-10-02T00:16:55.688Z,1025.28
2018-10-02T00:17:55.808Z,1025.35
2018-10-02T00:18:55.685Z,1025.29
2018-10-02T00:19:55.758Z,1025.32
2018-10-02T00:20:55.743Z,1025.28
2018-10-02T00:21:55.755Z,1025.3
2018-10-02T00:22:56.105Z,1025.29
2018-10-02T00:23:55.719Z,1025.31
2018-10-02T00:24:55.928Z,1025.34
2018-10-02T00:25:55.681Z,1025.34
2018-10-02T00:26:55.754Z,1025.3
2018-10-02T00:27:55.977Z,1025.29
2018-10-02T00:28:55.663Z,1025.29
2018-10-02T00:29:55.713Z,1025.25
2018-10-02T00:30:55.680Z,1025.3
2018-10-02T00:31:56.026Z,1025.29
2018-10-02T00:32:55.693Z,1025.3
2018-10-02T00:33:56.082Z,1025.26
2018-10-02T00:34:55.704Z,1025.23
2018-10-02T00:35:55.920Z,1025.31
2018-10-02T00:36:55.627Z,1025.25
2018-10-02T00:37:55.912Z,1025.28
2018-10-02T00:38:55.706Z,1025.26
2018-10-02T00:39:56.021Z,1025.28
2018-10-02T00:40:55.733Z,1025.24
2018-10-02T00:41:55.788Z,1025.26
2018-10-02T00:42:56.022Z,1025.26
2018-10-02T00:43:55.782Z,1025.28
2018-10-02T00:44:55.675Z,1025.23
2018-10-02T00:45:55.707Z,1025.29
2018-10-02T00:46:55.975Z,1025.33
2018-10-02T00:47:55.747Z,1025.28
2018-10-02T00:48:55.677Z,1025.31
2018-10-02T00:49:55.684Z,1025.28
2018-10-02T00:50:55.623Z,1025.29
2018-10-02T00:51:55.733Z,1025.32
2018-10-02T00:52:55.727Z,1025.32
2018-10-02T00:53:55.690Z,1025.28
2018-10-02T00:54:55.949Z,1025.31
2018-10-02T00:55:55.668Z,1025.32
2018-10-02T00:56:55.639Z,1025.32
2018-10-02T00:57:55.633Z,1025.28
2018-10-02T00:58:55.645Z,1025.33
2018-10-02T00:59:55.659Z,1025.29
2018-10-02T01:00:55.768Z,1025.32
2018-10-02T01:01:55.666Z,1025.35
2018-10-02T01:02:55.707Z,1025.34
2018-10-02T01:03:55.721Z,1025.36
2018-10-02T01:04:55.883Z,1025.39
2018-10-02T01:05:55.772Z,1025.4
2018-10-02T01:06:55.739Z,1025.39
2018-10-02T01:07:55.619Z,1025.36
2018-10-02T01:08:55.608Z,1025.36
2018-10-02T01:09:56.002Z,1025.38
2018-10-02T01:10:55.661Z,1025.35
2018-10-02T01:11:55.632Z,1025.34
2018-10-02T01:12:55.752Z,1025.36
2018-10-02T01:13:55.826Z,1025.37
2018-10-02T01:14:55.778Z,1025.36
2018-10-02T01:15:56.001Z,1025.35
2018-10-02T01:16:55.587Z,1025.3
2018-10-02T01:17:55.605Z,1025.29
2018-10-02T01:18:55.600Z,1025.3
2018-10-02T01:19:55.653Z,1025.32
2018-10-02T01:20:55.716Z,1025.32
2018-10-02T01:21:55.621Z,1025.3
2018-10-02T01:22:55.760Z,1025.32
2018-10-02T01:23:55.592Z,1025.3
2018-10-02T01:24:55.592Z,1025.32
2018-10-02T01:25:55.631Z,1025.35
2018-10-02T01:26:55.620Z,1025.35
2018-10-02T01:27:55.581Z,1025.34
2018-10-02T01:28:55.687Z,1025.35
2018-10-02T01:29:55.594Z,1025.36
2018-10-02T01:30:55.868Z,1025.34
2018-10-02T01:31:55.577Z,1025.43
2018-10-02T01:32:55.599Z,1025.42
2018-10-02T01:33:55.593Z,1025.43
2018-10-02T01:34:55.562Z,1025.44
2018-10-02T01:35:55.600Z,1025.46
2018-10-02T01:36:55.582Z,1025.42
2018-10-02T01:37:55.586Z,1025.4
2018-10-02T01:38:55.595Z,1025.42
2018-10-02T01:39:55.600Z,1025.39
2018-10-02T01:40:55.572Z,1025.4
2018-10-02T01:41:55.572Z,1025.4
2018-10-02T01:42:55.617Z,1025.42
2018-10-02T01:43:55.633Z,1025.41
2018-10-02T01:44:55.840Z,1025.42
2018-10-02T01:45:55.541Z,1025.43
2018-10-02T01:46:55.715Z,1025.44
2018-10-02T01:47:55.639Z,1025.42
2018-10-02T01:48:55.672Z,1025.38
2018-10-02T01:49:55.781Z,1025.38
2018-10-02T01:50:55.718Z,1025.43
2018-10-02T01:51:55.677Z,1025.5
2018-10-02T01:52:55.807Z,1025.43
2018-10-02T01:53:55.822Z,1025.49
2018-10-02T01:54:55.626Z,1025.45
2018-10-02T01:55:55.571Z,1025.47
2018-10-02T01:56:55.562Z,1025.46
2018-10-02T01:57:55.658Z,1025.44
2018-10-02T01:58:55.573Z,1025.42
2018-10-02T01:59:55.516Z,1025.47
2018-10-02T02:00:55.561Z,1025.46
2018-10-02T02:01:55.605Z,1025.46
2018-10-02T02:02:55.529Z,1025.48
2018-10-02T02:03:55.793Z,1025.51
2018-10-02T02:04:55.540Z,1025.49
2018-10-02T02:05:55.538Z,1025.5
2018-10-02T02:06:55.552Z,1025.52
2018-10-02T02:07:55.533Z,1025.56
2018-10-02T02:08:55.711Z,1025.51
2018-10-02T02:09:55.571Z,1025.53
2018-10-02T02:10:55.518Z,1025.54
2018-10-02T02:11:55.543Z,1025.49
2018-10-02T02:12:55.749Z,1025.57
2018-10-02T02:13:55.527Z,1025.51
2018-10-02T02:14:55.531Z,1025.52
2018-10-02T02:15:55.511Z,1025.55
2018-10-02T02:16:55.515Z,1025.58
2018-10-02T02:17:55.518Z,1025.55
2018-10-02T02:18:55.508Z,1025.61
2018-10-02T02:19:55.497Z,1025.59
2018-10-02T02:20:55.671Z,1025.56
2018-10-02T02:21:55.825Z,1025.6
2018-10-02T02:22:55.600Z,1025.59
2018-10-02T02:23:55.663Z,1025.58
2018-10-02T02:24:55.635Z,1025.59
2018-10-02T02:25:55.625Z,1025.54
2018-10-02T02:26:55.905Z,1025.54
2018-10-02T02:27:55.591Z,1025.54
2018-10-02T02:28:55.694Z,1025.54
2018-10-02T02:29:55.640Z,1025.51
2018-10-02T02:30:55.653Z,1025.48
2018-10-02T02:31:55.504Z,1025.48
2018-10-02T02:32:55.509Z,1025.49
2018-10-02T02:33:55.644Z,1025.51
2018-10-02T02:34:55.488Z,1025.57
2018-10-02T02:35:55.498Z,1025.59
2018-10-02T02:36:55.986Z,1025.63
2018-10-02T02:37:55.497Z,1025.67
2018-10-02T02:38:55.468Z,1025.63
2018-10-02T02:39:55.481Z,1025.7
2018-10-02T02:40:55.500Z,1025.72
2018-10-02T02:41:55.521Z,1025.76
2018-10-02T02:42:55.468Z,1025.69
2018-10-02T02:43:55.487Z,1025.72
2018-10-02T02:44:55.467Z,1025.76
2018-10-02T02:46:55.594Z,1025.77
2018-10-02T02:47:55.653Z,1025.79
2018-10-02T02:48:55.611Z,1025.81
2018-10-02T02:49:55.473Z,1025.79
2018-10-02T02:50:55.468Z,1025.81
2018-10-02T02:51:55.504Z,1025.81
2018-10-02T02:52:55.462Z,1025.84
2018-10-02T02:53:55.462Z,1025.83
2018-10-02T02:54:55.464Z,1025.85
2018-10-02T02:55:55.464Z,1025.84
2018-10-02T02:56:55.615Z,1025.81
2018-10-02T02:57:55.651Z,1025.82
2018-10-02T02:58:55.470Z,1025.88
2018-10-02T02:59:55.779Z,1025.92
2018-10-02T03:00:55.462Z,1025.9
2018-10-02T03:01:55.485Z,1025.88
2018-10-02T03:02:55.452Z,1025.85
2018-10-02T03:03:55.520Z,1025.87
2018-10-02T03:04:55.451Z,1025.87
2018-10-02T03:05:55.456Z,1025.89
2018-10-02T03:06:55.541Z,1025.93
2018-10-02T03:07:55.528Z,1025.91
2018-10-02T03:08:55.446Z,1025.88
2018-10-02T03:09:55.525Z,1025.88
2018-10-02T03:10:55.549Z,1025.85
2018-10-02T03:11:55.551Z,1025.84
2018-10-02T03:12:55.466Z,1025.83
2018-10-02T03:13:55.467Z,1025.85
2018-10-02T03:14:55.479Z,1025.84
2018-10-02T03:15:55.659Z,1025.8
2018-10-02T03:16:55.432Z,1025.74
2018-10-02T03:17:55.431Z,1025.8
2018-10-02T03:18:55.465Z,1025.79
2018-10-02T03:19:55.579Z,1025.79
2018-10-02T03:20:55.531Z,1025.85
2018-10-02T03:21:55.774Z,1025.82
2018-10-02T03:22:55.529Z,1025.81
2018-10-02T03:23:55.810Z,1025.82
2018-10-02T03:24:55.608Z,1025.85
2018-10-02T03:25:55.555Z,1025.86
2018-10-02T03:26:55.411Z,1025.82
2018-10-02T03:27:55.611Z,1025.79
2018-10-02T03:28:55.409Z,1025.8
2018-10-02T03:29:55.416Z,1025.76
2018-10-02T03:30:55.449Z,1025.77
2018-10-02T03:31:55.782Z,1025.81
2018-10-02T03:32:55.448Z,1025.82
2018-10-02T03:33:55.575Z,1025.82
2018-10-02T03:34:55.437Z,1025.78
2018-10-02T03:35:55.393Z,1025.82
2018-10-02T03:36:55.818Z,1025.78
2018-10-02T03:37:55.676Z,1025.73
2018-10-02T03:38:55.398Z,1025.79
2018-10-02T03:39:55.732Z,1025.79
2018-10-02T03:40:55.468Z,1025.8
2018-10-02T03:41:55.643Z,1025.82
2018-10-02T03:42:55.652Z,1025.84
2018-10-02T03:43:55.433Z,1025.89
2018-10-02T03:44:55.497Z,1025.85
2018-10-02T03:45:55.474Z,1025.89
2018-10-02T03:46:55.441Z,1025.88
2018-10-02T03:47:55.688Z,1025.94
2018-10-02T03:48:55.723Z,1025.9
2018-10-02T03:49:55.704Z,1025.89
2018-10-02T03:50:55.398Z,1025.89
2018-10-02T03:51:55.460Z,1025.85
2018-10-02T03:52:55.515Z,1025.88
2018-10-02T03:53:55.471Z,1025.89
2018-10-02T03:54:55.382Z,1025.84
2018-10-02T03:55:55.381Z,1025.83
2018-10-02T03:56:55.415Z,1025.84
2018-10-02T03:57:55.489Z,1025.85
2018-10-02T03:58:55.396Z,1025.85
2018-10-02T03:59:55.516Z,1025.88
2018-10-02T04:00:55.392Z,1025.9
2018-10-02T04:01:55.517Z,1025.84
2018-10-02T04:02:55.646Z,1025.82
2018-10-02T04:03:55.531Z,1025.85
2018-10-02T04:04:55.436Z,1025.82
2018-10-02T04:05:55.612Z,1025.8
2018-10-02T04:06:55.411Z,1025.86
2018-10-02T04:07:55.429Z,1025.82
2018-10-02T04:08:55.390Z,1025.77
2018-10-02T04:09:55.329Z,1025.77
2018-10-02T04:10:55.385Z,1025.83
2018-10-02T04:11:55.367Z,1025.77
2018-10-02T04:12:55.378Z,1025.74
2018-10-02T04:13:55.405Z,1025.77
2018-10-02T04:14:55.444Z,1025.75
2018-10-02T04:15:55.327Z,1025.72
2018-10-02T04:16:55.325Z,1025.74
2018-10-02T04:17:55.326Z,1025.7
2018-10-02T04:18:55.356Z,1025.69
2018-10-02T04:19:55.397Z,1025.66
2018-10-02T04:20:55.342Z,1025.63
2018-10-02T04:21:55.333Z,1025.61
2018-10-02T04:22:55.349Z,1025.66
2018-10-02T04:23:55.348Z,1025.67
2018-10-02T04:24:55.342Z,1025.71
2018-10-02T04:25:55.348Z,1025.73
2018-10-02T04:26:55.353Z,1025.74
2018-10-02T04:27:55.424Z,1025.76
2018-10-02T04:28:55.323Z,1025.78
2018-10-02T04:29:55.327Z,1025.82
2018-10-02T04:30:55.384Z,1025.86
2018-10-02T04:31:55.324Z,1025.81
2018-10-02T04:32:55.688Z,1025.8
2018-10-02T04:33:55.757Z,1025.83
2018-10-02T04:34:55.323Z,1025.86
2018-10-02T04:35:55.342Z,1025.89
2018-10-02T04:36:55.376Z,1025.81
2018-10-02T04:37:55.524Z,1025.78
2018-10-02T04:38:55.517Z,1025.76
2018-10-02T04:39:55.643Z,1025.73
2018-10-02T04:40:55.425Z,1025.77
2018-10-02T04:41:55.336Z,1025.75
2018-10-02T04:42:55.649Z,1025.71
2018-10-02T04:43:55.399Z,1025.75
2018-10-02T04:44:55.466Z,1025.69
2018-10-02T04:45:55.664Z,1025.73
2018-10-02T04:46:55.677Z,1025.73
2018-10-02T04:47:55.378Z,1025.69
2018-10-02T04:48:55.280Z,1025.64
2018-10-02T04:49:55.288Z,1025.63
2018-10-02T04:50:55.357Z,1025.61
2018-10-02T04:51:55.279Z,1025.56
2018-10-02T04:52:55.359Z,1025.56
2018-10-02T04:53:55.329Z,1025.53
2018-10-02T04:54:55.355Z,1025.53
2018-10-02T04:55:55.477Z,1025.51
2018-10-02T04:56:55.536Z,1025.49
2018-10-02T04:57:55.283Z,1025.46
2018-10-02T04:58:55.397Z,1025.46
2018-10-02T04:59:55.285Z,1025.51
2018-10-02T05:00:55.304Z,1025.47
2018-10-02T05:01:55.311Z,1025.49
2018-10-02T05:02:55.556Z,1025.49
2018-10-02T05:03:55.482Z,1025.54
2018-10-02T05:04:56.091Z,1025.52
2018-10-02T05:05:55.368Z,1025.53
2018-10-02T05:06:55.356Z,1025.57
2018-10-02T05:07:55.261Z,1025.58
2018-10-02T05:08:55.291Z,1025.52
2018-10-02T05:09:55.391Z,1025.59
2018-10-02T05:10:58.738Z,1025.6
2018-10-02T05:11:55.280Z,1025.56
2018-10-02T05:12:55.578Z,1025.57
2018-10-02T05:13:55.366Z,1025.55
2018-10-02T05:14:55.466Z,1025.54
2018-10-02T05:15:55.277Z,1025.53
2018-10-02T05:16:55.268Z,1025.54
2018-10-02T05:17:55.257Z,1025.5
2018-10-02T05:18:55.652Z,1025.51
2018-10-02T05:19:55.356Z,1025.5
2018-10-02T05:20:55.316Z,1025.47
2018-10-02T05:21:55.255Z,1025.47
2018-10-02T05:22:55.506Z,1025.52
2018-10-02T05:23:55.244Z,1025.59
2018-10-02T05:24:55.300Z,1025.63
2018-10-02T05:25:55.310Z,1025.68
2018-10-02T05:26:55.239Z,1025.63
2018-10-02T05:27:55.402Z,1025.66
2018-10-02T05:28:55.340Z,1025.68
2018-10-02T05:29:55.572Z,1025.7
2018-10-02T05:30:55.774Z,1025.7
2018-10-02T05:31:55.477Z,1025.75
2018-10-02T05:32:55.362Z,1025.81
2018-10-02T05:33:55.501Z,1025.81
2018-10-02T05:34:55.416Z,1025.81
2018-10-02T05:35:55.405Z,1025.79
2018-10-02T05:36:55.609Z,1025.73
2018-10-02T05:37:55.408Z,1025.8
2018-10-02T05:38:55.608Z,1025.8
2018-10-02T05:39:55.679Z,1025.8
2018-10-02T05:40:55.403Z,1025.84
2018-10-02T05:41:55.645Z,1025.85
2018-10-02T05:42:55.342Z,1025.87
2018-10-02T05:43:56.233Z,1025.91
2018-10-02T05:44:55.599Z,1025.87
2018-10-02T05:45:55.725Z,1025.89
2018-10-02T05:46:55.423Z,1025.82
2018-10-02T05:47:55.549Z,1025.83
2018-10-02T05:48:56.401Z,1025.77
2018-10-02T05:49:56.191Z,1025.77
2018-10-02T05:50:57.643Z,1025.75
2018-10-02T05:51:57.079Z,1025.74
2018-10-02T05:52:56.462Z,1025.78
2018-10-02T05:53:55.209Z,1025.8
2018-10-02T05:54:58.032Z,1025.76
2018-10-02T05:55:58.015Z,1025.78
2018-10-02T05:56:55.165Z,1025.75
2018-10-02T05:57:55.184Z,1025.77
2018-10-02T05:58:55.241Z,1025.78
2018-10-02T05:59:55.185Z,1025.82
2018-10-02T06:00:55.166Z,1025.86
2018-10-02T06:01:55.181Z,1025.84
2018-10-02T06:02:55.221Z,1025.87
2018-10-02T06:03:55.453Z,1025.89
2018-10-02T06:04:55.390Z,1025.87
2018-10-02T06:05:55.294Z,1025.93
2018-10-02T06:06:55.234Z,1025.92
2018-10-02T06:07:55.290Z,1025.96
2018-10-02T06:08:55.434Z,1025.93
2018-10-02T06:09:55.305Z,1025.9
2018-10-02T06:10:55.216Z,1025.94
2018-10-02T06:11:55.435Z,1025.96
2018-10-02T06:12:55.344Z,1025.93
2018-10-02T06:13:55.352Z,1025.88
2018-10-02T06:14:55.248Z,1025.8
2018-10-02T06:15:55.473Z,1025.82
2018-10-02T06:16:55.424Z,1025.79
2018-10-02T06:17:55.361Z,1025.83
2018-10-02T06:18:55.216Z,1025.81
2018-10-02T06:19:55.400Z,1025.92
2018-10-02T06:20:55.250Z,1025.89
2018-10-02T06:21:55.236Z,1025.95
2018-10-02T06:22:55.274Z,1025.95
2018-10-02T06:23:55.341Z,1026.03
2018-10-02T06:24:55.219Z,1026.03
2018-10-02T06:25:55.158Z,1026.06
2018-10-02T06:26:55.237Z,1026.08
2018-10-02T06:27:55.181Z,1026.09
2018-10-02T06:28:55.312Z,1026.14
2018-10-02T06:29:55.155Z,1026.14
2018-10-02T06:30:55.654Z,1026.13
2018-10-02T06:31:55.303Z,1026.12
2018-10-02T06:32:55.200Z,1026.15
2018-10-02T06:33:55.253Z,1026.13
2018-10-02T06:34:55.137Z,1026.08
2018-10-02T06:35:55.158Z,1026.12
2018-10-02T06:36:55.561Z,1026.05
2018-10-02T06:37:55.235Z,1026.03
2018-10-02T06:38:55.341Z,1026.09
2018-10-02T06:39:55.245Z,1026.12
2018-10-02T06:40:55.173Z,1026.09
2018-10-02T06:41:55.137Z,1026.13
2018-10-02T06:42:55.349Z,1026.14
2018-10-02T06:43:55.150Z,1026.16
2018-10-02T06:44:55.237Z,1026.14
2018-10-02T06:45:55.192Z,1026.15
2018-10-02T06:46:55.148Z,1026.08
2018-10-02T06:47:55.168Z,1026.06
2018-10-02T06:48:55.512Z,1026.02
2018-10-02T06:49:55.097Z,1026.05
2018-10-02T06:50:55.377Z,1026.06
2018-10-02T06:51:55.514Z,1026.12
2018-10-02T06:52:55.417Z,1026.13
2018-10-02T06:53:55.292Z,1026.09
2018-10-02T06:54:55.364Z,1026.13
2018-10-02T06:55:55.207Z,1026.14
2018-10-02T06:56:55.259Z,1026.12
2018-10-02T06:57:55.352Z,1026.1
2018-10-02T06:58:55.121Z,1026.11
2018-10-02T06:59:55.112Z,1026.12
2018-10-02T07:00:55.110Z,1026.11
2018-10-02T07:01:55.139Z,1026.07
2018-10-02T07:02:55.250Z,1026.13
2018-10-02T07:03:55.155Z,1026.12
2018-10-02T07:04:55.096Z,1026.07
2018-10-02T07:05:55.104Z,1026.06
2018-10-02T07:06:55.335Z,1026.07
2018-10-02T07:07:55.093Z,1026.05
2018-10-02T07:08:55.204Z,1026
2018-10-02T07:09:55.067Z,1025.99
2018-10-02T07:10:55.061Z,1025.94
2018-10-02T07:11:55.070Z,1025.88
2018-10-02T07:12:55.092Z,1025.94
2018-10-02T07:13:55.049Z,1025.96
2018-10-02T07:14:55.133Z,1026.05
2018-10-02T07:15:55.096Z,1026.1
2018-10-02T07:16:55.052Z,1026.12
2018-10-02T07:17:55.056Z,1026.08
2018-10-02T07:18:55.051Z,1026.1
2018-10-02T07:19:55.048Z,1025.99
2018-10-02T07:20:55.132Z,1026
2018-10-02T07:21:55.052Z,1025.97
2018-10-02T07:22:55.077Z,1026.03
2018-10-02T07:23:55.053Z,1026.03
2018-10-02T07:24:55.066Z,1026.03
2018-10-02T07:25:55.103Z,1026
2018-10-02T07:26:55.581Z,1025.95
2018-10-02T07:27:55.906Z,1025.96
2018-10-02T07:28:55.130Z,1025.95
2018-10-02T07:29:55.368Z,1025.99
2018-10-02T07:30:55.220Z,1026.01
2018-10-02T07:31:55.272Z,1026.08
2018-10-02T07:32:55.300Z,1026.11
2018-10-02T07:33:55.349Z,1026.14
2018-10-02T07:34:55.299Z,1026.16
2018-10-02T07:35:55.044Z,1026.16
2018-10-02T07:36:55.275Z,1026.17
2018-10-02T07:37:55.182Z,1026.18
2018-10-02T07:38:55.077Z,1026.2
2018-10-02T07:39:55.082Z,1026.16
2018-10-02T07:40:55.152Z,1026.17
2018-10-02T07:41:55.467Z,1026.19
2018-10-02T07:42:55.073Z,1026.19
2018-10-02T07:43:54.980Z,1026.23
2018-10-02T07:45:55.071Z,1026.21
2018-10-02T07:46:55.154Z,1026.17
2018-10-02T07:47:55.227Z,1026.17
2018-10-02T07:48:55.296Z,1026.21
2018-10-02T07:49:55.135Z,1026.16
2018-10-02T07:50:55.151Z,1026.17
2018-10-02T07:51:55.062Z,1026.15
2018-10-02T07:52:55.024Z,1026.17
2018-10-02T07:53:55.232Z,1026.14
2018-10-02T07:54:54.992Z,1026.13
2018-10-02T07:55:55.055Z,1026.12
2018-10-02T07:56:55.427Z,1026.14
2018-10-02T07:57:55.022Z,1026.12
2018-10-02T07:58:55.373Z,1026.07
2018-10-02T07:59:54.993Z,1026.08
2018-10-02T08:00:55.123Z,1026.1
2018-10-02T08:01:55.290Z,1026.07
2018-10-02T08:02:55.408Z,1026.13
2018-10-02T08:03:54.960Z,1026.08
2018-10-02T08:04:55.213Z,1026.06
2018-10-02T08:05:55.305Z,1026.03
2018-10-02T08:06:55.001Z,1026.06
2018-10-02T08:07:54.998Z,1026.05
2018-10-02T08:08:55.120Z,1026.08
2018-10-02T08:09:55.345Z,1026.06
2018-10-02T08:10:54.996Z,1026.03
2018-10-02T08:11:55.110Z,1026
2018-10-02T08:12:55.005Z,1026.01
2018-10-02T08:13:55.066Z,1025.98
2018-10-02T08:14:55.123Z,1026
2018-10-02T08:15:54.993Z,1025.94
2018-10-02T08:16:55.012Z,1025.91
2018-10-02T08:17:55.292Z,1025.92
2018-10-02T08:18:55.807Z,1025.94
2018-10-02T08:19:55.170Z,1025.96
2018-10-02T08:20:55.329Z,1025.91
2018-10-02T08:21:55.039Z,1025.91
2018-10-02T08:22:55.113Z,1025.84
2018-10-02T08:23:55.294Z,1025.88
2018-10-02T08:24:55.099Z,1025.93
2018-10-02T08:25:54.984Z,1025.9
2018-10-02T08:26:55.483Z,1025.86
2018-10-02T08:27:55.165Z,1025.81
2018-10-02T08:28:55.008Z,1025.8
2018-10-02T08:29:55.152Z,1025.89
2018-10-02T08:30:54.991Z,1025.83
2018-10-02T08:31:55.096Z,1025.88
2018-10-02T08:32:55.077Z,1025.91
2018-10-02T08:33:55.031Z,1025.88
2018-10-02T08:34:54.933Z,1025.93
2018-10-02T08:35:55.313Z,1025.95
2018-10-02T08:36:54.948Z,1025.92
2018-10-02T08:37:54.973Z,1025.92
2018-10-02T08:38:55.043Z,1025.96
2018-10-02T08:39:54.944Z,1026.02
2018-10-02T08:40:54.956Z,1025.96
2018-10-02T08:41:55.135Z,1026
2018-10-02T08:42:55.057Z,1026.03
2018-10-02T08:43:55.266Z,1026.02
2018-10-02T08:44:55.116Z,1026.05
2018-10-02T08:45:54.978Z,1026.09
2018-10-02T08:46:54.944Z,1026.09
2018-10-02T08:47:55.028Z,1026.07
2018-10-02T08:48:55.000Z,1026.09
2018-10-02T08:49:54.937Z,1026.06
2018-10-02T08:50:54.997Z,1026.03
2018-10-02T08:51:55.554Z,1026.04
2018-10-02T08:52:54.977Z,1026.04
2018-10-02T08:54:55.162Z,1026.15
2018-10-02T08:55:54.929Z,1026.04
2018-10-02T08:56:55.077Z,1025.94
2018-10-02T08:57:55.168Z,1025.93
2018-10-02T08:59:55.034Z,1025.9
2018-10-02T09:00:55.065Z,1025.92
2018-10-02T09:01:55.085Z,1025.94
2018-10-02T09:02:55.048Z,1025.91
2018-10-02T09:03:54.536Z,1025.9
2018-10-02T09:04:55.056Z,1025.86
2018-10-02T09:05:55.212Z,1025.81
2018-10-02T09:06:54.673Z,1025.88
2018-10-02T09:07:54.982Z,1025.83
2018-10-02T09:08:55.010Z,1025.78
2018-10-02T09:09:55.059Z,1025.73
2018-10-02T09:10:55.058Z,1025.76
2018-10-02T09:11:55.042Z,1025.83
2018-10-02T09:12:55.126Z,1025.78
2018-10-02T09:13:55.328Z,1025.82
2018-10-02T09:14:54.923Z,1025.8
2018-10-02T09:15:55.451Z,1025.81
2018-10-02T09:16:54.914Z,1025.73
2018-10-02T09:17:54.926Z,1025.77
2018-10-02T09:18:55.111Z,1025.79
2018-10-02T09:19:54.995Z,1025.76
2018-10-02T09:20:55.000Z,1025.76
2018-10-02T09:21:55.203Z,1025.77
2018-10-02T09:22:54.942Z,1025.73
2018-10-02T09:23:55.213Z,1025.69
2018-10-02T09:24:55.222Z,1025.68
2018-10-02T09:25:54.984Z,1025.66
2018-10-02T09:26:55.146Z,1025.71
2018-10-02T09:27:54.956Z,1025.74
2018-10-02T09:28:54.891Z,1025.72
2018-10-02T09:29:54.976Z,1025.83
2018-10-02T09:30:55.465Z,1025.86
2018-10-02T09:31:54.994Z,1025.85
2018-10-02T09:32:55.018Z,1025.86
2018-10-02T09:33:55.179Z,1025.88
2018-10-02T09:34:55.092Z,1025.88
2018-10-02T09:35:55.108Z,1025.89
2018-10-02T09:36:55.072Z,1025.91
2018-10-02T09:37:54.947Z,1025.85
2018-10-02T09:38:55.121Z,1025.84
2018-10-02T09:39:55.206Z,1025.79
2018-10-02T09:40:55.173Z,1025.75
2018-10-02T09:41:54.868Z,1025.64
2018-10-02T09:42:55.435Z,1025.63
2018-10-02T09:43:55.226Z,1025.68
2018-10-02T09:44:54.988Z,1025.67
2018-10-02T09:45:55.046Z,1025.75
2018-10-02T09:46:54.947Z,1025.67
2018-10-02T09:47:55.121Z,1025.66
2018-10-02T09:48:54.911Z,1025.65
2018-10-02T09:49:55.233Z,1025.65
2018-10-02T09:50:55.390Z,1025.67
2018-10-02T09:51:55.449Z,1025.68
2018-10-02T09:52:54.979Z,1025.64
2018-10-02T09:53:54.828Z,1025.71
2018-10-02T09:54:55.054Z,1025.73
2018-10-02T09:55:55.038Z,1025.65
2018-10-02T09:56:55.042Z,1025.72
2018-10-02T09:57:54.840Z,1025.68
2018-10-02T09:58:54.832Z,1025.74
2018-10-02T09:59:54.829Z,1025.74
2018-10-02T10:00:54.935Z,1025.77
2018-10-02T10:01:54.805Z,1025.78
2018-10-02T10:02:54.960Z,1025.76
2018-10-02T10:03:54.945Z,1025.82
2018-10-02T10:04:54.812Z,1025.72
2018-10-02T10:05:54.877Z,1025.73
2018-10-02T10:06:54.841Z,1025.71
2018-10-02T10:07:54.829Z,1025.74
2018-10-02T10:08:54.864Z,1025.64
2018-10-02T10:09:54.833Z,1025.61
2018-10-02T10:10:54.833Z,1025.58
2018-10-02T10:11:54.808Z,1025.51
2018-10-02T10:12:54.850Z,1025.53
2018-10-02T10:13:54.797Z,1025.54
2018-10-02T10:14:54.828Z,1025.5
2018-10-02T10:15:54.837Z,1025.47
2018-10-02T10:16:54.946Z,1025.43
2018-10-02T10:17:54.928Z,1025.46
2018-10-02T10:18:54.990Z,1025.52
2018-10-02T10:19:54.998Z,1025.47
2018-10-02T10:20:55.223Z,1025.53
2018-10-02T10:21:54.789Z,1025.5
2018-10-02T10:22:55.261Z,1025.55
2018-10-02T10:23:54.986Z,1025.48
2018-10-02T10:24:54.888Z,1025.47
2018-10-02T10:25:54.848Z,1025.47
2018-10-02T10:26:55.062Z,1025.53
2018-10-02T10:27:54.817Z,1025.51
2018-10-02T10:28:55.080Z,1025.5
2018-10-02T10:29:54.795Z,1025.52
2018-10-02T10:30:54.779Z,1025.6
2018-10-02T10:31:55.090Z,1025.55
2018-10-02T10:32:54.931Z,1025.57
2018-10-02T10:33:55.207Z,1025.62
2018-10-02T10:34:54.950Z,1025.51
2018-10-02T10:35:54.793Z,1025.57
2018-10-02T10:36:54.860Z,1025.57
2018-10-02T10:37:54.785Z,1025.54
2018-10-02T10:38:54.788Z,1025.56
2018-10-02T10:39:55.271Z,1025.51
2018-10-02T10:40:55.173Z,1025.55
2018-10-02T10:41:54.915Z,1025.54
2018-10-02T10:42:54.969Z,1025.53
2018-10-02T10:43:54.811Z,1025.53
2018-10-02T10:44:54.826Z,1025.55
2018-10-02T10:45:54.795Z,1025.6
2018-10-02T10:46:54.919Z,1025.61
2018-10-02T10:47:55.008Z,1025.57
2018-10-02T10:48:55.002Z,1025.53
2018-10-02T10:49:54.865Z,1025.53
2018-10-02T10:50:54.743Z,1025.53
2018-10-02T10:51:55.605Z,1025.5
2018-10-02T10:52:55.110Z,1025.57
2018-10-02T10:53:54.844Z,1025.57
2018-10-02T10:54:54.752Z,1025.53
2018-10-02T10:55:54.831Z,1025.48
2018-10-02T10:56:55.047Z,1025.49
2018-10-02T10:57:54.883Z,1025.51
2018-10-02T10:58:54.853Z,1025.53
2018-10-02T10:59:54.885Z,1025.37
2018-10-02T11:00:54.978Z,1025.41
2018-10-02T11:01:54.791Z,1025.38
2018-10-02T11:02:55.127Z,1025.35
2018-10-02T11:03:54.769Z,1025.3
2018-10-02T11:04:54.943Z,1025.33
2018-10-02T11:05:54.723Z,1025.21
2018-10-02T11:06:54.754Z,1025.19
2018-10-02T11:07:55.047Z,1025.16
2018-10-02T11:08:54.941Z,1025.15
2018-10-02T11:09:54.917Z,1025.15
2018-10-02T11:10:55.176Z,1025.15
2018-10-02T11:11:54.711Z,1025.18
2018-10-02T11:12:54.731Z,1025.21
2018-10-02T11:13:54.892Z,1025.14
2018-10-02T11:14:54.818Z,1025.13
2018-10-02T11:15:54.847Z,1025.14
2018-10-02T11:16:54.926Z,1025.16
2018-10-02T11:17:54.743Z,1025.22
2018-10-02T11:18:54.811Z,1025.29
2018-10-02T11:19:54.798Z,1025.24
2018-10-02T11:20:54.735Z,1025.36
2018-10-02T11:21:54.741Z,1025.29
2018-10-02T11:22:54.703Z,1025.3
2018-10-02T11:23:54.797Z,1025.27
2018-10-02T11:24:54.708Z,1025.26
2018-10-02T11:25:54.976Z,1025.31
2018-10-02T11:26:54.706Z,1025.27
2018-10-02T11:27:54.690Z,1025.21
2018-10-02T11:28:54.688Z,1025.19
2018-10-02T11:29:54.791Z,1025.17
2018-10-02T11:30:54.700Z,1025.18
2018-10-02T11:31:54.690Z,1025.22
2018-10-02T11:32:54.703Z,1025.14
2018-10-02T11:33:54.720Z,1025.2
2018-10-02T11:34:54.684Z,1025.21
2018-10-02T11:35:54.685Z,1025.2
2018-10-02T11:36:54.708Z,1025.26
2018-10-02T11:37:54.685Z,1025.23
2018-10-02T11:38:54.677Z,1025.17
2018-10-02T11:39:54.708Z,1025.24
2018-10-02T11:40:54.684Z,1025.18
2018-10-02T11:41:54.733Z,1025.23
2018-10-02T11:42:54.738Z,1025.23
2018-10-02T11:43:54.787Z,1025.19
2018-10-02T11:44:55.416Z,1025.27
2018-10-02T11:45:54.808Z,1025.3
2018-10-02T11:46:54.710Z,1025.22
2018-10-02T11:47:54.675Z,1025.28
2018-10-02T11:48:54.740Z,1025.31
2018-10-02T11:49:55.325Z,1025.3
2018-10-02T11:50:54.879Z,1025.26
2018-10-02T11:51:54.683Z,1025.31
2018-10-02T11:52:54.942Z,1025.29
2018-10-02T11:53:54.819Z,1025.25
2018-10-02T11:54:54.643Z,1025.26
2018-10-02T11:55:55.049Z,1025.25
2018-10-02T11:56:54.656Z,1025.26
2018-10-02T11:57:54.640Z,1025.19
2018-10-02T11:58:54.791Z,1025.17
2018-10-02T11:59:55.077Z,1025.2
2018-10-02T12:00:54.993Z,1025.19
2018-10-02T12:01:55.088Z,1025.21
2018-10-02T12:02:54.851Z,1025.17
2018-10-02T12:03:54.693Z,1025.17
2018-10-02T12:04:54.673Z,1025.16
2018-10-02T12:05:54.628Z,1025.16
2018-10-02T12:06:54.956Z,1025.14
2018-10-02T12:07:54.930Z,1025.14
2018-10-02T12:08:54.929Z,1025.2
2018-10-02T12:09:54.718Z,1025.15
2018-10-02T12:10:54.693Z,1025.15
2018-10-02T12:11:54.628Z,1025.09
2018-10-02T12:12:54.957Z,1025.15